sensor_id;sensor_type;location;lat;lon;timestamp;P1;durP1;ratioP1;P2;durP2;ratioP2
11139;SDS011;5624;49.388;11.350;2022-08-27T00:00:53;21.17;;;16.80;;
11139;SDS011;5624;49.388;11.350;2022-08-27T00:03:19;19.98;;;15.93;;
11139;SDS011;5624;49.388;11.350;2022-08-27T00:05:45;19.10;;;16.35;;
11139;SDS011;5624;49.388;11.350;2022-08-27T00:08:11;19.42;;;16.77;;
11139;SDS011;5624;49.388;11.350;2022-08-27T00:10:37;19.52;;;15.45;;
11139;SDS011;5624;49.388;11.350;2022-08-27T00:13:03;20.40;;;16.02;;
11139;SDS011;5624;49.388;11.350;2022-08-27T00:15:29;18.08;;;15.30;;
11139;SDS011;5624;49.388;11.350;2022-08-27T00:17:55;23.95;;;16.95;;
11139;SDS011;5624;49.388;11.350;2022-08-27T00:20:22;23.23;;;17.17;;
11139;SDS011;5624;49.388;11.350;2022-08-27T00:22:50;24.33;;;18.17;;
11139;SDS011;5624;49.388;11.350;2022-08-27T00:25:16;22.38;;;16.35;;
11139;SDS011;5624;49.388;11.350;2022-08-27T00:27:43;21.42;;;16.35;;
11139;SDS011;5624;49.388;11.350;2022-08-27T00:30:10;21.85;;;16.98;;
11139;SDS011;5624;49.388;11.350;2022-08-27T00:32:38;23.02;;;16.98;;
11139;SDS011;5624;49.388;11.350;2022-08-27T00:35:04;22.55;;;17.38;;
11139;SDS011;5624;49.388;11.350;2022-08-27T00:37:31;20.15;;;17.60;;
11139;SDS011;5624;49.388;11.350;2022-08-27T00:39:57;21.30;;;17.15;;
11139;SDS011;5624;49.388;11.350;2022-08-27T00:42:23;23.63;;;19.33;;
11139;SDS011;5624;49.388;11.350;2022-08-27T00:44:49;22.98;;;16.88;;
11139;SDS011;5624;49.388;11.350;2022-08-27T00:47:16;20.95;;;15.80;;
11139;SDS011;5624;49.388;11.350;2022-08-27T00:49:48;19.92;;;16.02;;
11139;SDS011;5624;49.388;11.350;2022-08-27T00:54:56;19.60;;;14.63;;
11139;SDS011;5624;49.388;11.350;2022-08-27T00:57:24;20.13;;;13.82;;
11139;SDS011;5624;49.388;11.350;2022-08-27T00:59:51;19.25;;;12.85;;
11139;SDS011;5624;49.388;11.350;2022-08-27T01:02:17;14.60;;;12.25;;
11139;SDS011;5624;49.388;11.350;2022-08-27T01:04:44;14.25;;;12.30;;
11139;SDS011;5624;49.388;11.350;2022-08-27T01:07:11;16.17;;;12.80;;
11139;SDS011;5624;49.388;11.350;2022-08-27T01:09:38;17.52;;;13.32;;
11139;SDS011;5624;49.388;11.350;2022-08-27T01:12:06;18.92;;;12.65;;
11139;SDS011;5624;49.388;11.350;2022-08-27T01:14:33;17.35;;;11.73;;
11139;SDS011;5624;49.388;11.350;2022-08-27T01:16:59;15.23;;;11.07;;
11139;SDS011;5624;49.388;11.350;2022-08-27T01:24:41;15.57;;;11.38;;
11139;SDS011;5624;49.388;11.350;2022-08-27T01:27:11;15.57;;;10.90;;
11139;SDS011;5624;49.388;11.350;2022-08-27T01:29:40;14.30;;;11.43;;
11139;SDS011;5624;49.388;11.350;2022-08-27T01:32:16;13.40;;;11.15;;
11139;SDS011;5624;49.388;11.350;2022-08-27T01:34:45;13.73;;;12.15;;
11139;SDS011;5624;49.388;11.350;2022-08-27T01:37:12;17.08;;;13.50;;
11139;SDS011;5624;49.388;11.350;2022-08-27T01:39:39;16.10;;;12.38;;
11139;SDS011;5624;49.388;11.350;2022-08-27T01:42:10;13.80;;;11.60;;
11139;SDS011;5624;49.388;11.350;2022-08-27T01:44:47;13.93;;;12.43;;
11139;SDS011;5624;49.388;11.350;2022-08-27T01:47:43;16.83;;;11.98;;
11139;SDS011;5624;49.388;11.350;2022-08-27T01:50:10;16.85;;;12.00;;
11139;SDS011;5624;49.388;11.350;2022-08-27T01:52:39;16.33;;;12.43;;
11139;SDS011;5624;49.388;11.350;2022-08-27T01:55:06;14.15;;;12.02;;
11139;SDS011;5624;49.388;11.350;2022-08-27T01:57:33;16.58;;;11.57;;
11139;SDS011;5624;49.388;11.350;2022-08-27T01:59:59;14.90;;;11.73;;
11139;SDS011;5624;49.388;11.350;2022-08-27T02:02:27;14.60;;;11.55;;
11139;SDS011;5624;49.388;11.350;2022-08-27T02:04:52;13.55;;;9.88;;
11139;SDS011;5624;49.388;11.350;2022-08-27T02:07:18;13.73;;;10.35;;
11139;SDS011;5624;49.388;11.350;2022-08-27T02:09:44;13.30;;;10.82;;
11139;SDS011;5624;49.388;11.350;2022-08-27T02:12:09;12.52;;;10.20;;
11139;SDS011;5624;49.388;11.350;2022-08-27T02:14:35;12.32;;;9.57;;
11139;SDS011;5624;49.388;11.350;2022-08-27T02:17:01;12.18;;;9.45;;
11139;SDS011;5624;49.388;11.350;2022-08-27T02:19:27;11.13;;;9.40;;
11139;SDS011;5624;49.388;11.350;2022-08-27T02:21:52;13.45;;;10.20;;
11139;SDS011;5624;49.388;11.350;2022-08-27T02:24:18;12.50;;;8.85;;
11139;SDS011;5624;49.388;11.350;2022-08-27T02:26:44;13.00;;;10.55;;
11139;SDS011;5624;49.388;11.350;2022-08-27T02:29:10;11.93;;;9.20;;
11139;SDS011;5624;49.388;11.350;2022-08-27T02:31:36;12.18;;;9.98;;
11139;SDS011;5624;49.388;11.350;2022-08-27T02:34:02;12.13;;;10.65;;
11139;SDS011;5624;49.388;11.350;2022-08-27T02:36:28;12.27;;;9.75;;
11139;SDS011;5624;49.388;11.350;2022-08-27T02:38:54;11.73;;;10.52;;
11139;SDS011;5624;49.388;11.350;2022-08-27T02:41:20;15.45;;;10.75;;
11139;SDS011;5624;49.388;11.350;2022-08-27T02:43:46;14.73;;;10.55;;
11139;SDS011;5624;49.388;11.350;2022-08-27T02:46:12;16.77;;;11.25;;
11139;SDS011;5624;49.388;11.350;2022-08-27T02:48:38;12.23;;;10.57;;
11139;SDS011;5624;49.388;11.350;2022-08-27T02:51:05;13.85;;;10.82;;
11139;SDS011;5624;49.388;11.350;2022-08-27T02:53:32;15.45;;;12.23;;
11139;SDS011;5624;49.388;11.350;2022-08-27T02:55:59;14.65;;;12.07;;
11139;SDS011;5624;49.388;11.350;2022-08-27T02:58:25;15.10;;;11.93;;
11139;SDS011;5624;49.388;11.350;2022-08-27T03:00:50;15.27;;;11.98;;
11139;SDS011;5624;49.388;11.350;2022-08-27T03:03:16;13.75;;;11.23;;
11139;SDS011;5624;49.388;11.350;2022-08-27T03:05:42;17.77;;;13.88;;
11139;SDS011;5624;49.388;11.350;2022-08-27T03:08:08;17.50;;;13.55;;
11139;SDS011;5624;49.388;11.350;2022-08-27T03:10:33;17.85;;;13.25;;
11139;SDS011;5624;49.388;11.350;2022-08-27T03:12:59;17.88;;;14.38;;
11139;SDS011;5624;49.388;11.350;2022-08-27T03:15:25;16.30;;;14.60;;
11139;SDS011;5624;49.388;11.350;2022-08-27T03:17:51;20.08;;;15.68;;
11139;SDS011;5624;49.388;11.350;2022-08-27T03:20:36;18.02;;;14.73;;
11139;SDS011;5624;49.388;11.350;2022-08-27T03:23:04;20.02;;;16.27;;
11139;SDS011;5624;49.388;11.350;2022-08-27T03:25:31;22.08;;;17.50;;
11139;SDS011;5624;49.388;11.350;2022-08-27T03:27:57;22.83;;;17.05;;
11139;SDS011;5624;49.388;11.350;2022-08-27T03:30:22;26.00;;;19.35;;
11139;SDS011;5624;49.388;11.350;2022-08-27T03:32:49;27.50;;;19.48;;
11139;SDS011;5624;49.388;11.350;2022-08-27T03:35:16;24.02;;;18.13;;
11139;SDS011;5624;49.388;11.350;2022-08-27T03:37:44;23.73;;;18.48;;
11139;SDS011;5624;49.388;11.350;2022-08-27T03:40:11;23.85;;;18.83;;
11139;SDS011;5624;49.388;11.350;2022-08-27T03:42:37;25.27;;;18.38;;
11139;SDS011;5624;49.388;11.350;2022-08-27T03:45:03;23.48;;;18.45;;
11139;SDS011;5624;49.388;11.350;2022-08-27T03:47:30;25.48;;;18.50;;
11139;SDS011;5624;49.388;11.350;2022-08-27T03:49:56;20.92;;;16.73;;
11139;SDS011;5624;49.388;11.350;2022-08-27T03:52:24;23.73;;;17.90;;
11139;SDS011;5624;49.388;11.350;2022-08-27T03:54:50;22.48;;;16.63;;
11139;SDS011;5624;49.388;11.350;2022-08-27T03:57:15;25.00;;;17.02;;
11139;SDS011;5624;49.388;11.350;2022-08-27T03:59:41;19.33;;;16.25;;
11139;SDS011;5624;49.388;11.350;2022-08-27T04:02:06;19.27;;;16.10;;
11139;SDS011;5624;49.388;11.350;2022-08-27T04:04:32;21.45;;;16.25;;
11139;SDS011;5624;49.388;11.350;2022-08-27T04:06:58;20.27;;;16.23;;
11139;SDS011;5624;49.388;11.350;2022-08-27T04:09:24;21.98;;;16.20;;
11139;SDS011;5624;49.388;11.350;2022-08-27T04:11:50;18.25;;;14.45;;
11139;SDS011;5624;49.388;11.350;2022-08-27T04:14:16;19.27;;;15.00;;
11139;SDS011;5624;49.388;11.350;2022-08-27T04:16:42;20.08;;;15.70;;
11139;SDS011;5624;49.388;11.350;2022-08-27T04:19:08;17.30;;;13.27;;
11139;SDS011;5624;49.388;11.350;2022-08-27T04:21:34;15.52;;;13.20;;
11139;SDS011;5624;49.388;11.350;2022-08-27T04:24:00;15.77;;;13.45;;
11139;SDS011;5624;49.388;11.350;2022-08-27T04:26:27;18.63;;;14.43;;
11139;SDS011;5624;49.388;11.350;2022-08-27T04:28:53;17.95;;;13.32;;
11139;SDS011;5624;49.388;11.350;2022-08-27T04:31:19;20.63;;;15.50;;
11139;SDS011;5624;49.388;11.350;2022-08-27T04:33:45;17.13;;;13.57;;
11139;SDS011;5624;49.388;11.350;2022-08-27T04:36:11;18.33;;;14.55;;
11139;SDS011;5624;49.388;11.350;2022-08-27T04:38:38;18.20;;;14.18;;
11139;SDS011;5624;49.388;11.350;2022-08-27T04:41:04;17.55;;;13.43;;
11139;SDS011;5624;49.388;11.350;2022-08-27T04:43:49;19.95;;;14.50;;
11139;SDS011;5624;49.388;11.350;2022-08-27T04:46:21;19.10;;;14.10;;
11139;SDS011;5624;49.388;11.350;2022-08-27T04:48:48;18.73;;;13.63;;
11139;SDS011;5624;49.388;11.350;2022-08-27T04:51:14;16.85;;;13.60;;
11139;SDS011;5624;49.388;11.350;2022-08-27T04:53:40;19.60;;;14.32;;
11139;SDS011;5624;49.388;11.350;2022-08-27T04:56:06;17.40;;;14.23;;
11139;SDS011;5624;49.388;11.350;2022-08-27T04:58:32;17.58;;;13.02;;
11139;SDS011;5624;49.388;11.350;2022-08-27T05:00:58;21.98;;;14.23;;
11139;SDS011;5624;49.388;11.350;2022-08-27T05:03:25;19.95;;;14.70;;
11139;SDS011;5624;49.388;11.350;2022-08-27T05:05:56;19.05;;;13.75;;
11139;SDS011;5624;49.388;11.350;2022-08-27T05:08:25;18.25;;;13.70;;
11139;SDS011;5624;49.388;11.350;2022-08-27T05:10:50;18.08;;;14.07;;
11139;SDS011;5624;49.388;11.350;2022-08-27T05:13:17;19.55;;;14.77;;
11139;SDS011;5624;49.388;11.350;2022-08-27T05:15:44;19.25;;;14.63;;
11139;SDS011;5624;49.388;11.350;2022-08-27T05:18:12;18.70;;;14.65;;
11139;SDS011;5624;49.388;11.350;2022-08-27T05:20:45;20.25;;;15.27;;
11139;SDS011;5624;49.388;11.350;2022-08-27T05:23:12;19.30;;;14.52;;
11139;SDS011;5624;49.388;11.350;2022-08-27T05:25:41;18.52;;;13.90;;
11139;SDS011;5624;49.388;11.350;2022-08-27T05:28:10;18.27;;;14.27;;
11139;SDS011;5624;49.388;11.350;2022-08-27T05:30:41;18.90;;;13.35;;
11139;SDS011;5624;49.388;11.350;2022-08-27T05:33:11;16.95;;;13.45;;
11139;SDS011;5624;49.388;11.350;2022-08-27T05:35:57;17.40;;;14.57;;
11139;SDS011;5624;49.388;11.350;2022-08-27T05:38:25;16.95;;;13.27;;
11139;SDS011;5624;49.388;11.350;2022-08-27T05:41:06;18.65;;;12.85;;
11139;SDS011;5624;49.388;11.350;2022-08-27T05:43:36;15.93;;;11.57;;
11139;SDS011;5624;49.388;11.350;2022-08-27T05:46:04;14.48;;;11.43;;
11139;SDS011;5624;49.388;11.350;2022-08-27T05:48:33;14.00;;;11.30;;
11139;SDS011;5624;49.388;11.350;2022-08-27T05:51:21;14.73;;;11.45;;
11139;SDS011;5624;49.388;11.350;2022-08-27T13:24:28;3.83;;;2.70;;
11139;SDS011;5624;49.388;11.350;2022-08-27T13:26:57;4.28;;;2.85;;
11139;SDS011;5624;49.388;11.350;2022-08-27T13:29:24;2.60;;;2.38;;
11139;SDS011;5624;49.388;11.350;2022-08-27T13:31:52;4.47;;;2.58;;
11139;SDS011;5624;49.388;11.350;2022-08-27T13:34:22;2.97;;;2.00;;
11139;SDS011;5624;49.388;11.350;2022-08-27T13:36:53;3.20;;;2.20;;
11139;SDS011;5624;49.388;11.350;2022-08-27T13:39:34;2.25;;;2.05;;
11139;SDS011;5624;49.388;11.350;2022-08-27T13:42:04;3.92;;;2.45;;
11139;SDS011;5624;49.388;11.350;2022-08-27T13:44:36;2.33;;;2.03;;
11139;SDS011;5624;49.388;11.350;2022-08-27T13:47:06;2.03;;;1.83;;
11139;SDS011;5624;49.388;11.350;2022-08-27T13:49:38;3.90;;;1.80;;
11139;SDS011;5624;49.388;11.350;2022-08-27T13:52:26;2.42;;;2.20;;
11139;SDS011;5624;49.388;11.350;2022-08-27T13:57:45;2.67;;;2.10;;
11139;SDS011;5624;49.388;11.350;2022-08-27T14:02:59;2.70;;;1.88;;
11139;SDS011;5624;49.388;11.350;2022-08-27T14:05:28;2.22;;;1.85;;
11139;SDS011;5624;49.388;11.350;2022-08-27T14:08:09;1.98;;;1.73;;
11139;SDS011;5624;49.388;11.350;2022-08-27T14:10:39;2.50;;;2.22;;
11139;SDS011;5624;49.388;11.350;2022-08-27T14:18:29;2.72;;;1.70;;
11139;SDS011;5624;49.388;11.350;2022-08-27T14:20:58;5.07;;;1.80;;
11139;SDS011;5624;49.388;11.350;2022-08-27T14:23:26;3.20;;;1.52;;
11139;SDS011;5624;49.388;11.350;2022-08-27T14:25:54;2.08;;;1.70;;
11139;SDS011;5624;49.388;11.350;2022-08-27T14:28:22;3.00;;;2.10;;
11139;SDS011;5624;49.388;11.350;2022-08-27T14:30:48;4.82;;;2.80;;
11139;SDS011;5624;49.388;11.350;2022-08-27T14:33:14;5.53;;;2.38;;
11139;SDS011;5624;49.388;11.350;2022-08-27T14:35:40;2.35;;;1.95;;
11139;SDS011;5624;49.388;11.350;2022-08-27T14:40:46;2.50;;;2.15;;
11139;SDS011;5624;49.388;11.350;2022-08-27T14:43:14;5.80;;;3.22;;
11139;SDS011;5624;49.388;11.350;2022-08-27T14:45:40;5.63;;;3.28;;
11139;SDS011;5624;49.388;11.350;2022-08-27T14:48:10;3.92;;;3.08;;
11139;SDS011;5624;49.388;11.350;2022-08-27T14:50:39;3.75;;;3.35;;
11139;SDS011;5624;49.388;11.350;2022-08-27T14:53:06;4.70;;;3.38;;
11139;SDS011;5624;49.388;11.350;2022-08-27T14:55:36;4.38;;;3.08;;
11139;SDS011;5624;49.388;11.350;2022-08-27T14:58:04;5.18;;;4.13;;
11139;SDS011;5624;49.388;11.350;2022-08-27T15:00:30;7.68;;;4.13;;
11139;SDS011;5624;49.388;11.350;2022-08-27T15:02:56;4.65;;;4.00;;
11139;SDS011;5624;49.388;11.350;2022-08-27T15:05:22;3.92;;;3.53;;
11139;SDS011;5624;49.388;11.350;2022-08-27T15:07:50;10.25;;;4.78;;
11139;SDS011;5624;49.388;11.350;2022-08-27T15:10:18;7.10;;;4.70;;
11139;SDS011;5624;49.388;11.350;2022-08-27T15:12:44;4.30;;;3.42;;
11139;SDS011;5624;49.388;11.350;2022-08-27T15:15:10;4.90;;;3.45;;
11139;SDS011;5624;49.388;11.350;2022-08-27T15:17:36;4.15;;;2.97;;
11139;SDS011;5624;49.388;11.350;2022-08-27T15:20:04;3.95;;;2.95;;
11139;SDS011;5624;49.388;11.350;2022-08-27T15:22:33;3.97;;;2.95;;
11139;SDS011;5624;49.388;11.350;2022-08-27T15:25:00;4.07;;;2.70;;
11139;SDS011;5624;49.388;11.350;2022-08-27T15:27:29;5.70;;;2.78;;
11139;SDS011;5624;49.388;11.350;2022-08-27T15:29:57;3.85;;;2.95;;
11139;SDS011;5624;49.388;11.350;2022-08-27T15:32:27;3.25;;;2.15;;
11139;SDS011;5624;49.388;11.350;2022-08-27T15:34:59;2.67;;;2.15;;
11139;SDS011;5624;49.388;11.350;2022-08-27T15:37:29;3.78;;;2.30;;
11139;SDS011;5624;49.388;11.350;2022-08-27T15:39:55;3.63;;;2.42;;
11139;SDS011;5624;49.388;11.350;2022-08-27T15:42:21;3.15;;;2.70;;
11139;SDS011;5624;49.388;11.350;2022-08-27T15:44:49;2.70;;;2.40;;
11139;SDS011;5624;49.388;11.350;2022-08-27T15:47:17;3.65;;;2.55;;
11139;SDS011;5624;49.388;11.350;2022-08-27T15:49:43;3.72;;;2.30;;
11139;SDS011;5624;49.388;11.350;2022-08-27T15:52:10;2.85;;;2.38;;
11139;SDS011;5624;49.388;11.350;2022-08-27T15:54:38;4.57;;;2.55;;
11139;SDS011;5624;49.388;11.350;2022-08-27T15:57:05;3.60;;;2.67;;
11139;SDS011;5624;49.388;11.350;2022-08-27T15:59:31;3.83;;;2.53;;
11139;SDS011;5624;49.388;11.350;2022-08-27T16:01:57;3.28;;;2.35;;
11139;SDS011;5624;49.388;11.350;2022-08-27T16:04:24;2.90;;;2.35;;
11139;SDS011;5624;49.388;11.350;2022-08-27T16:06:50;3.42;;;1.83;;
11139;SDS011;5624;49.388;11.350;2022-08-27T16:09:17;2.63;;;2.20;;
11139;SDS011;5624;49.388;11.350;2022-08-27T16:11:42;2.72;;;2.33;;
11139;SDS011;5624;49.388;11.350;2022-08-27T16:14:10;3.65;;;2.80;;
11139;SDS011;5624;49.388;11.350;2022-08-27T16:16:36;4.25;;;2.58;;
11139;SDS011;5624;49.388;11.350;2022-08-27T16:19:04;5.00;;;2.92;;
11139;SDS011;5624;49.388;11.350;2022-08-27T16:21:31;3.95;;;2.70;;
11139;SDS011;5624;49.388;11.350;2022-08-27T16:24:03;3.60;;;2.53;;
11139;SDS011;5624;49.388;11.350;2022-08-27T16:26:34;3.42;;;2.55;;
11139;SDS011;5624;49.388;11.350;2022-08-27T16:29:00;5.90;;;2.97;;
11139;SDS011;5624;49.388;11.350;2022-08-27T16:31:26;3.22;;;2.60;;
11139;SDS011;5624;49.388;11.350;2022-08-27T16:33:53;4.55;;;3.20;;
11139;SDS011;5624;49.388;11.350;2022-08-27T16:36:19;5.80;;;4.00;;
11139;SDS011;5624;49.388;11.350;2022-08-27T16:38:45;2.88;;;2.53;;
11139;SDS011;5624;49.388;11.350;2022-08-27T16:41:11;4.25;;;3.08;;
11139;SDS011;5624;49.388;11.350;2022-08-27T16:43:38;3.28;;;2.95;;
11139;SDS011;5624;49.388;11.350;2022-08-27T16:46:04;4.45;;;3.47;;
11139;SDS011;5624;49.388;11.350;2022-08-27T16:48:31;5.38;;;3.30;;
11139;SDS011;5624;49.388;11.350;2022-08-27T16:51:17;6.22;;;3.65;;
11139;SDS011;5624;49.388;11.350;2022-08-27T16:53:47;5.43;;;3.58;;
11139;SDS011;5624;49.388;11.350;2022-08-27T16:56:15;5.00;;;3.88;;
11139;SDS011;5624;49.388;11.350;2022-08-27T16:58:43;3.67;;;3.28;;
11139;SDS011;5624;49.388;11.350;2022-08-27T17:01:12;4.75;;;3.70;;
11139;SDS011;5624;49.388;11.350;2022-08-27T17:03:42;4.05;;;2.88;;
11139;SDS011;5624;49.388;11.350;2022-08-27T17:06:12;4.20;;;3.05;;
11139;SDS011;5624;49.388;11.350;2022-08-27T17:08:40;5.53;;;3.92;;
11139;SDS011;5624;49.388;11.350;2022-08-27T17:11:13;5.38;;;4.05;;
11139;SDS011;5624;49.388;11.350;2022-08-27T17:13:47;4.13;;;3.35;;
11139;SDS011;5624;49.388;11.350;2022-08-27T17:16:19;5.78;;;3.33;;
11139;SDS011;5624;49.388;11.350;2022-08-27T17:18:48;5.30;;;4.47;;
11139;SDS011;5624;49.388;11.350;2022-08-27T17:21:16;5.43;;;3.90;;
11139;SDS011;5624;49.388;11.350;2022-08-27T17:23:45;4.97;;;3.85;;
11139;SDS011;5624;49.388;11.350;2022-08-27T17:26:15;4.88;;;3.80;;
11139;SDS011;5624;49.388;11.350;2022-08-27T17:28:42;4.60;;;4.07;;
11139;SDS011;5624;49.388;11.350;2022-08-27T17:31:22;5.05;;;3.45;;
11139;SDS011;5624;49.388;11.350;2022-08-27T17:33:53;5.47;;;3.90;;
11139;SDS011;5624;49.388;11.350;2022-08-27T17:36:21;4.85;;;3.70;;
11139;SDS011;5624;49.388;11.350;2022-08-27T17:38:48;4.55;;;3.10;;
11139;SDS011;5624;49.388;11.350;2022-08-27T17:43:50;4.63;;;3.97;;
11139;SDS011;5624;49.388;11.350;2022-08-27T17:46:18;5.57;;;4.03;;
11139;SDS011;5624;49.388;11.350;2022-08-27T17:48:45;7.70;;;3.58;;
11139;SDS011;5624;49.388;11.350;2022-08-27T17:51:12;4.43;;;3.72;;
11139;SDS011;5624;49.388;11.350;2022-08-27T17:53:39;4.60;;;3.65;;
11139;SDS011;5624;49.388;11.350;2022-08-27T17:56:11;4.03;;;3.35;;
11139;SDS011;5624;49.388;11.350;2022-08-27T17:58:38;3.83;;;3.40;;
11139;SDS011;5624;49.388;11.350;2022-08-27T18:01:04;5.00;;;3.22;;
11139;SDS011;5624;49.388;11.350;2022-08-27T18:03:33;4.45;;;3.38;;
11139;SDS011;5624;49.388;11.350;2022-08-27T18:05:58;4.47;;;3.53;;
11139;SDS011;5624;49.388;11.350;2022-08-27T18:08:25;4.07;;;3.60;;
11139;SDS011;5624;49.388;11.350;2022-08-27T18:10:51;6.88;;;3.60;;
11139;SDS011;5624;49.388;11.350;2022-08-27T18:13:17;6.38;;;3.53;;
11139;SDS011;5624;49.388;11.350;2022-08-27T18:15:43;5.15;;;4.30;;
11139;SDS011;5624;49.388;11.350;2022-08-27T18:18:10;4.63;;;3.85;;
11139;SDS011;5624;49.388;11.350;2022-08-27T18:20:37;5.88;;;3.97;;
11139;SDS011;5624;49.388;11.350;2022-08-27T18:23:06;5.45;;;4.25;;
11139;SDS011;5624;49.388;11.350;2022-08-27T18:25:33;6.97;;;4.63;;
11139;SDS011;5624;49.388;11.350;2022-08-27T18:28:03;5.85;;;4.55;;
11139;SDS011;5624;49.388;11.350;2022-08-27T18:30:30;6.28;;;4.43;;
11139;SDS011;5624;49.388;11.350;2022-08-27T18:32:56;4.90;;;4.25;;
11139;SDS011;5624;49.388;11.350;2022-08-27T18:35:28;4.95;;;4.38;;
11139;SDS011;5624;49.388;11.350;2022-08-27T18:37:55;5.10;;;4.25;;
11139;SDS011;5624;49.388;11.350;2022-08-27T18:40:22;6.78;;;5.18;;
11139;SDS011;5624;49.388;11.350;2022-08-27T18:42:50;5.63;;;4.82;;
11139;SDS011;5624;49.388;11.350;2022-08-27T18:45:22;7.25;;;5.13;;
11139;SDS011;5624;49.388;11.350;2022-08-27T18:47:50;6.05;;;5.15;;
11139;SDS011;5624;49.388;11.350;2022-08-27T18:50:18;5.45;;;4.85;;
11139;SDS011;5624;49.388;11.350;2022-08-27T18:52:45;6.68;;;5.47;;
11139;SDS011;5624;49.388;11.350;2022-08-27T18:55:13;6.38;;;5.05;;
11139;SDS011;5624;49.388;11.350;2022-08-27T18:57:40;6.18;;;5.38;;
11139;SDS011;5624;49.388;11.350;2022-08-27T19:00:07;7.28;;;5.45;;
11139;SDS011;5624;49.388;11.350;2022-08-27T19:02:34;8.57;;;6.03;;
11139;SDS011;5624;49.388;11.350;2022-08-27T19:05:01;6.90;;;5.15;;
11139;SDS011;5624;49.388;11.350;2022-08-27T19:07:28;7.68;;;5.80;;
11139;SDS011;5624;49.388;11.350;2022-08-27T19:09:54;5.68;;;5.07;;
11139;SDS011;5624;49.388;11.350;2022-08-27T19:12:21;9.20;;;4.97;;
11139;SDS011;5624;49.388;11.350;2022-08-27T19:14:48;6.15;;;5.47;;
11139;SDS011;5624;49.388;11.350;2022-08-27T19:17:22;6.97;;;5.80;;
11139;SDS011;5624;49.388;11.350;2022-08-27T19:19:53;6.18;;;5.38;;
11139;SDS011;5624;49.388;11.350;2022-08-27T19:22:19;7.20;;;4.93;;
11139;SDS011;5624;49.388;11.350;2022-08-27T19:24:46;6.32;;;5.18;;
11139;SDS011;5624;49.388;11.350;2022-08-27T19:27:14;7.07;;;5.40;;
11139;SDS011;5624;49.388;11.350;2022-08-27T19:29:41;6.78;;;5.13;;
11139;SDS011;5624;49.388;11.350;2022-08-27T19:32:07;6.80;;;4.63;;
11139;SDS011;5624;49.388;11.350;2022-08-27T19:34:32;6.93;;;5.15;;
11139;SDS011;5624;49.388;11.350;2022-08-27T19:36:58;7.72;;;6.03;;
11139;SDS011;5624;49.388;11.350;2022-08-27T19:39:25;6.82;;;5.75;;
11139;SDS011;5624;49.388;11.350;2022-08-27T19:41:51;6.97;;;6.20;;
11139;SDS011;5624;49.388;11.350;2022-08-27T19:44:17;6.97;;;6.28;;
11139;SDS011;5624;49.388;11.350;2022-08-27T19:46:43;7.43;;;5.88;;
11139;SDS011;5624;49.388;11.350;2022-08-27T19:49:09;7.95;;;6.07;;
11139;SDS011;5624;49.388;11.350;2022-08-27T19:51:35;7.40;;;6.03;;
11139;SDS011;5624;49.388;11.350;2022-08-27T19:54:01;9.18;;;6.25;;
11139;SDS011;5624;49.388;11.350;2022-08-27T19:56:26;10.40;;;6.80;;
11139;SDS011;5624;49.388;11.350;2022-08-27T19:58:53;9.48;;;7.10;;
11139;SDS011;5624;49.388;11.350;2022-08-27T20:01:18;7.30;;;6.25;;
11139;SDS011;5624;49.388;11.350;2022-08-27T20:03:44;8.15;;;7.07;;
11139;SDS011;5624;49.388;11.350;2022-08-27T20:06:10;7.80;;;6.78;;
11139;SDS011;5624;49.388;11.350;2022-08-27T20:08:36;8.38;;;6.60;;
11139;SDS011;5624;49.388;11.350;2022-08-27T20:11:02;7.90;;;6.65;;
11139;SDS011;5624;49.388;11.350;2022-08-27T20:13:28;7.82;;;6.35;;
11139;SDS011;5624;49.388;11.350;2022-08-27T20:15:53;9.18;;;6.78;;
11139;SDS011;5624;49.388;11.350;2022-08-27T20:18:19;9.10;;;7.38;;
11139;SDS011;5624;49.388;11.350;2022-08-27T20:20:45;8.13;;;7.32;;
11139;SDS011;5624;49.388;11.350;2022-08-27T20:23:11;9.82;;;7.53;;
11139;SDS011;5624;49.388;11.350;2022-08-27T20:25:38;9.35;;;7.10;;
11139;SDS011;5624;49.388;11.350;2022-08-27T20:28:05;8.63;;;7.72;;
11139;SDS011;5624;49.388;11.350;2022-08-27T20:30:31;8.02;;;7.20;;
11139;SDS011;5624;49.388;11.350;2022-08-27T20:32:57;15.75;;;8.20;;
11139;SDS011;5624;49.388;11.350;2022-08-27T20:35:24;8.35;;;7.45;;
11139;SDS011;5624;49.388;11.350;2022-08-27T20:37:51;9.63;;;6.80;;
11139;SDS011;5624;49.388;11.350;2022-08-27T20:40:19;9.32;;;7.63;;
11139;SDS011;5624;49.388;11.350;2022-08-27T20:42:47;8.30;;;6.63;;
11139;SDS011;5624;49.388;11.350;2022-08-27T20:45:13;11.75;;;7.10;;
11139;SDS011;5624;49.388;11.350;2022-08-27T20:47:39;8.93;;;6.90;;
11139;SDS011;5624;49.388;11.350;2022-08-27T20:50:07;8.90;;;7.47;;
11139;SDS011;5624;49.388;11.350;2022-08-27T20:52:33;8.75;;;7.50;;
11139;SDS011;5624;49.388;11.350;2022-08-27T20:54:59;9.80;;;8.35;;
11139;SDS011;5624;49.388;11.350;2022-08-27T20:57:25;10.02;;;7.55;;
11139;SDS011;5624;49.388;11.350;2022-08-27T20:59:51;10.63;;;7.78;;
11139;SDS011;5624;49.388;11.350;2022-08-27T21:02:35;8.25;;;6.72;;
11139;SDS011;5624;49.388;11.350;2022-08-27T21:05:11;9.32;;;6.82;;
11139;SDS011;5624;49.388;11.350;2022-08-27T21:07:38;10.00;;;7.75;;
11139;SDS011;5624;49.388;11.350;2022-08-27T21:10:04;9.95;;;6.68;;
11139;SDS011;5624;49.388;11.350;2022-08-27T21:12:31;9.20;;;7.28;;
11139;SDS011;5624;49.388;11.350;2022-08-27T21:14:57;8.65;;;6.82;;
11139;SDS011;5624;49.388;11.350;2022-08-27T21:17:24;11.45;;;7.45;;
11139;SDS011;5624;49.388;11.350;2022-08-27T21:19:51;17.02;;;8.20;;
11139;SDS011;5624;49.388;11.350;2022-08-27T21:22:17;7.93;;;7.13;;
11139;SDS011;5624;49.388;11.350;2022-08-27T21:24:43;11.30;;;7.78;;
11139;SDS011;5624;49.388;11.350;2022-08-27T21:27:11;8.43;;;7.00;;
11139;SDS011;5624;49.388;11.350;2022-08-27T21:29:37;9.45;;;7.03;;
11139;SDS011;5624;49.388;11.350;2022-08-27T21:32:03;8.63;;;7.07;;
11139;SDS011;5624;49.388;11.350;2022-08-27T21:34:28;9.93;;;7.85;;
11139;SDS011;5624;49.388;11.350;2022-08-27T21:36:55;9.68;;;7.20;;
11139;SDS011;5624;49.388;11.350;2022-08-27T21:39:21;9.52;;;8.43;;
11139;SDS011;5624;49.388;11.350;2022-08-27T21:41:47;11.43;;;7.75;;
11139;SDS011;5624;49.388;11.350;2022-08-27T21:44:12;10.88;;;8.57;;
11139;SDS011;5624;49.388;11.350;2022-08-27T21:46:38;10.35;;;7.90;;
11139;SDS011;5624;49.388;11.350;2022-08-27T21:49:04;9.55;;;7.80;;
11139;SDS011;5624;49.388;11.350;2022-08-27T21:51:30;9.30;;;8.00;;
11139;SDS011;5624;49.388;11.350;2022-08-27T21:53:56;11.32;;;8.00;;
11139;SDS011;5624;49.388;11.350;2022-08-27T21:56:23;10.85;;;8.63;;
11139;SDS011;5624;49.388;11.350;2022-08-27T21:58:49;10.70;;;8.55;;
11139;SDS011;5624;49.388;11.350;2022-08-27T22:01:15;10.27;;;8.77;;
11139;SDS011;5624;49.388;11.350;2022-08-27T22:03:41;10.50;;;8.10;;
11139;SDS011;5624;49.388;11.350;2022-08-27T22:06:08;12.32;;;8.80;;
11139;SDS011;5624;49.388;11.350;2022-08-27T22:08:37;12.27;;;9.45;;
11139;SDS011;5624;49.388;11.350;2022-08-27T22:11:03;13.50;;;8.95;;
11139;SDS011;5624;49.388;11.350;2022-08-27T22:13:30;15.15;;;9.15;;
11139;SDS011;5624;49.388;11.350;2022-08-27T22:15:57;10.65;;;9.13;;
11139;SDS011;5624;49.388;11.350;2022-08-27T22:18:23;9.88;;;8.82;;
11139;SDS011;5624;49.388;11.350;2022-08-27T22:20:49;11.65;;;9.40;;
11139;SDS011;5624;49.388;11.350;2022-08-27T22:23:16;12.63;;;10.00;;
11139;SDS011;5624;49.388;11.350;2022-08-27T22:25:42;12.90;;;9.32;;
11139;SDS011;5624;49.388;11.350;2022-08-27T22:28:08;11.50;;;9.80;;
11139;SDS011;5624;49.388;11.350;2022-08-27T22:30:34;12.98;;;9.35;;
11139;SDS011;5624;49.388;11.350;2022-08-27T22:33:00;9.93;;;8.30;;